This is the latest recevied weather packets stored in our database for station/object E22ZMG-3. If no packets are shown the sender has not sent any weather packets the latest 10 day(s).
| Time | Temp. | Humidity | Pressure | Rain* | Wind** | Luminosity | Snow |
|---|---|---|---|---|---|---|---|
| 1777815655 | 35° C | 44% | 974 hPa | - | - | 0 W/m² | - |
| 1777815030 | 36.11° C | 42% | 973 hPa | - | - | 0 W/m² | - |
| 1777814406 | 35.56° C | 42% | 973 hPa | - | - | 0 W/m² | - |
| 1777813781 | 35.56° C | 40% | 973 hPa | - | - | 0 W/m² | - |
| 1777813156 | 36.67° C | 38% | 973 hPa | - | - | 0 W/m² | - |
| 1777812532 | 36.67° C | 39% | 972 hPa | - | - | 0 W/m² | - |
| 1777811906 | 37.22° C | 37% | 972 hPa | - | - | 0 W/m² | - |
| 1777811281 | 37.78° C | 35% | 972 hPa | - | - | 0 W/m² | - |
| 1777810657 | 37.78° C | 36% | 972 hPa | - | - | 0 W/m² | - |
| 1777810032 | 38.33° C | 35% | 972 hPa | - | - | 0 W/m² | - |
| 1777809407 | 38.33° C | 33% | 972 hPa | - | - | 0 W/m² | - |
| 1777808783 | 39.44° C | 31% | 971 hPa | - | - | 0 W/m² | - |
| 1777808158 | 39.44° C | 31% | 971 hPa | - | - | 0 W/m² | - |
| 1777807533 | 40° C | 29% | 971 hPa | - | - | 0 W/m² | - |
| 1777806907 | 39.44° C | 31% | 971 hPa | - | - | 0 W/m² | - |
| 1777806282 | 38.89° C | 30% | 971 hPa | - | - | 0 W/m² | - |
| 1777805656 | 40° C | 30% | 971 hPa | - | - | 0 W/m² | - |
| 1777805032 | 41.11° C | 27% | 971 hPa | - | - | 0 W/m² | - |
| 1777804406 | 41.67° C | 26% | 971 hPa | - | - | 0 W/m² | - |
| 1777803782 | 40.56° C | 28% | 971 hPa | - | - | 0 W/m² | - |
| 1777803157 | 39.44° C | 29% | 971 hPa | - | - | 0 W/m² | - |
| 1777802532 | 41.67° C | 26% | 971 hPa | - | - | 0 W/m² | - |
| 1777801905 | 41.67° C | 28% | 971 hPa | - | - | 0 W/m² | - |
| 1777801280 | 41.11° C | 27% | 971 hPa | - | - | 0 W/m² | - |
| 1777800655 | 41.67° C | 25% | 971 hPa | - | - | 0 W/m² | - |
* Rain since midnight (hover to see other rain measurements)
** Current wind speed in m/s (hover to see current wind gust speed)